createdAt,value
2023-02-18T00:00:58.878Z,95091.00
2023-02-18T00:03:29.771Z,95091.00
2023-02-18T00:05:57.071Z,95087.53
2023-02-18T00:08:23.826Z,95085.03
2023-02-18T00:10:51.308Z,95082.97
2023-02-18T00:13:17.921Z,95081.38
2023-02-18T00:15:44.583Z,95084.53
2023-02-18T00:18:11.798Z,95082.97
2023-02-18T00:20:39.817Z,95084.53
2023-02-18T00:23:06.609Z,95082.97
2023-02-18T00:25:33.330Z,95071.75
2023-02-18T00:27:59.950Z,95058.47
2023-02-18T00:30:28.573Z,95068.88
2023-02-18T00:32:55.951Z,95063.53
2023-02-18T00:35:22.580Z,95063.03
2023-02-18T00:37:52.789Z,95059.06
2023-02-18T00:40:21.025Z,95040.78
2023-02-18T00:42:47.731Z,95050.25
2023-02-18T00:45:14.606Z,95057.50
2023-02-18T00:47:41.704Z,95048.25
2023-02-18T00:50:09.792Z,95036.06
2023-02-18T00:52:36.475Z,95034.81
2023-02-18T00:55:03.509Z,95047.25
2023-02-18T00:57:30.164Z,95044.72
2023-02-18T00:59:56.849Z,95044.41
2023-02-18T01:02:23.513Z,95042.50
2023-02-18T01:04:50.197Z,95047.06
2023-02-18T01:07:17.776Z,95059.06
2023-02-18T01:09:44.413Z,95055.59
2023-02-18T01:12:11.212Z,95049.34
2023-02-18T01:14:37.836Z,95045.06
2023-02-18T01:17:05.149Z,95036.72
2023-02-18T01:19:32.039Z,95022.22
2023-02-18T01:22:00.234Z,95025.81
2023-02-18T01:24:27.048Z,95031.56
2023-02-18T01:26:53.726Z,95039.59
2023-02-18T01:29:20.570Z,95031.56
2023-02-18T01:31:47.321Z,95041.66
2023-02-18T01:34:15.464Z,95024.47
2023-02-18T01:36:42.392Z,95022.28
2023-02-18T01:39:09.039Z,95025.75
2023-02-18T01:41:35.747Z,95029.72
2023-02-18T01:44:11.524Z,95025.94
2023-02-18T01:46:38.393Z,95016.63
2023-02-18T01:49:06.571Z,95013.16
2023-02-18T01:51:41.784Z,95016.94
2023-02-18T01:54:20.316Z,95016.31
2023-02-18T01:56:53.964Z,95010.47
2023-02-18T01:59:38.403Z,95011.09
2023-02-18T02:02:08.814Z,95021.19
2023-02-18T02:04:35.576Z,95018.81
2023-02-18T02:07:02.623Z,95027.66
2023-02-18T02:09:32.393Z,95015.03
2023-02-18T02:12:18.336Z,95011.88
2023-02-18T02:15:23.260Z,95012.19
2023-02-18T02:18:23.487Z,95003.34
2023-02-18T02:21:24.133Z,95014.38
2023-02-18T02:24:25.743Z,95013.88
2023-02-18T02:27:02.127Z,94997.44
2023-02-18T02:29:53.777Z,95001.41
2023-02-18T02:32:35.617Z,95001.72
2023-02-18T02:35:22.644Z,94993.66
2023-02-18T02:38:01.808Z,94977.25
2023-02-18T02:40:55.099Z,94998.25
2023-02-18T02:43:37.549Z,94982.78
2023-02-18T02:46:12.854Z,94972.22
2023-02-18T02:49:08.963Z,94983.94
2023-02-18T02:51:43.955Z,94979.84
2023-02-18T02:54:18.962Z,94984.41
2023-02-18T02:56:46.126Z,94973.81
2023-02-18T02:59:22.996Z,94978.44
2023-02-18T03:02:26.866Z,94984.09
2023-02-18T03:05:22.847Z,94987.09
2023-02-18T03:08:21.821Z,94982.03
2023-02-18T03:11:01.396Z,94981.25
2023-02-18T03:14:00.205Z,94974.78
2023-02-18T03:16:50.772Z,94979.84
2023-02-18T03:19:40.898Z,94979.06
2023-02-18T03:22:23.404Z,94971.94
2023-02-18T03:24:54.429Z,94968.63
2023-02-18T03:27:37.706Z,94971.63
2023-02-18T03:30:16.311Z,94964.06
2023-02-18T03:32:45.632Z,94972.41
2023-02-18T03:35:15.824Z,94959.31
2023-02-18T03:37:51.392Z,94956.34
2023-02-18T03:40:19.034Z,94948.00
2023-02-18T03:42:46.261Z,94959.50
2023-02-18T03:45:12.947Z,94945.13
2023-02-18T03:47:41.317Z,94947.63
2023-02-18T03:50:08.628Z,94946.06
2023-02-18T03:52:36.798Z,94952.56
2023-02-18T03:55:06.750Z,94945.78
2023-02-18T03:57:33.507Z,94946.41
2023-02-18T04:00:00.210Z,94953.03
2023-02-18T04:02:26.966Z,94941.06
2023-02-18T04:04:53.706Z,94961.09
2023-02-18T04:07:20.488Z,94953.97
2023-02-18T04:09:47.176Z,94959.16
2023-02-18T04:12:13.805Z,94964.38
2023-02-18T04:14:40.509Z,94950.94
2023-02-18T04:17:07.192Z,94958.84
2023-02-18T04:19:33.847Z,94962.31
2023-02-18T04:22:00.492Z,94962.00
2023-02-18T04:24:27.116Z,94956.47
2023-02-18T04:26:53.848Z,94985.31
2023-02-18T04:29:20.563Z,94970.66
2023-02-18T04:31:47.246Z,94980.44
2023-02-18T04:34:13.877Z,94977.47
2023-02-18T04:36:40.552Z,94962.47
2023-02-18T04:39:07.149Z,94961.09
2023-02-18T04:41:33.832Z,94957.00
2023-02-18T04:44:00.675Z,94968.63
2023-02-18T04:46:27.396Z,94956.03
2023-02-18T04:48:54.052Z,94957.75
2023-02-18T04:51:21.350Z,94954.44
2023-02-18T04:53:48.007Z,94963.28
2023-02-18T04:56:14.691Z,94951.16
2023-02-18T04:58:41.358Z,94951.16
2023-02-18T05:01:08.015Z,94949.75
2023-02-18T05:03:34.739Z,94953.53
2023-02-18T05:06:01.379Z,94951.94
2023-02-18T05:08:27.988Z,94946.72
2023-02-18T05:10:54.671Z,94951.78
2023-02-18T05:13:22.880Z,94956.47
2023-02-18T05:15:49.945Z,94949.06
2023-02-18T05:18:16.661Z,94943.84
2023-02-18T05:20:44.003Z,94955.81
2023-02-18T05:23:10.651Z,94966.19
2023-02-18T05:25:37.243Z,94970.75
2023-02-18T05:28:04.060Z,94966.78
2023-02-18T05:30:30.668Z,94965.03
2023-02-18T05:32:57.316Z,94959.47
2023-02-18T05:35:23.925Z,94968.94
2023-02-18T05:37:50.594Z,94973.16
2023-02-18T05:40:17.336Z,94974.59
2023-02-18T05:42:43.976Z,94958.34
2023-02-18T05:45:10.640Z,94982.66
2023-02-18T05:47:37.265Z,94975.81
2023-02-18T05:50:05.383Z,94983.06
2023-02-18T05:52:32.151Z,94968.69
2023-02-18T05:54:58.817Z,94978.50
2023-02-18T05:57:25.546Z,94978.19
2023-02-18T05:59:52.256Z,94978.38
2023-02-18T06:02:19.000Z,94982.47
2023-02-18T06:04:45.659Z,94976.91
2023-02-18T06:07:12.416Z,94977.09
2023-02-18T06:09:39.054Z,94980.28
2023-02-18T06:12:06.128Z,94984.84
2023-02-18T06:14:32.797Z,94966.50
2023-02-18T06:16:59.461Z,94977.28
2023-02-18T06:19:26.184Z,94971.31
2023-02-18T06:21:52.877Z,94976.03
2023-02-18T06:24:19.504Z,94985.66
2023-02-18T06:26:46.244Z,94976.69
2023-02-18T06:29:12.904Z,94979.81
2023-02-18T06:31:39.624Z,94975.56
2023-02-18T06:34:06.307Z,94974.75
2023-02-18T06:36:33.133Z,94981.25
2023-02-18T06:38:59.817Z,94978.09
2023-02-18T06:41:26.513Z,94976.00
2023-02-18T06:43:53.110Z,94979.59
2023-02-18T06:46:19.805Z,94987.31
2023-02-18T06:48:46.792Z,94985.31
2023-02-18T06:51:14.417Z,94985.31
2023-02-18T06:53:41.052Z,94976.97
2023-02-18T06:56:08.048Z,94976.19
2023-02-18T06:58:34.835Z,94982.03
2023-02-18T07:01:01.537Z,94957.13
2023-02-18T07:03:29.359Z,94972.50
2023-02-18T07:05:56.148Z,94972.53
2023-02-18T07:08:22.815Z,94968.47
2023-02-18T07:10:49.831Z,94977.59
2023-02-18T07:13:16.912Z,94982.22
2023-02-18T07:15:43.535Z,94977.97
2023-02-18T07:18:10.168Z,94976.06
2023-02-18T07:20:36.797Z,94965.03
2023-02-18T07:23:03.514Z,94958.09
2023-02-18T07:25:30.192Z,94953.22
2023-02-18T07:27:56.838Z,94927.34
2023-02-18T07:30:23.565Z,94949.31
2023-02-18T07:32:50.500Z,94955.91
2023-02-18T07:35:17.957Z,94941.88
2023-02-18T07:37:49.027Z,94959.88
2023-02-18T07:40:19.548Z,94966.34
2023-02-18T07:42:46.271Z,94958.94
2023-02-18T07:45:13.589Z,94959.75
2023-02-18T07:47:41.784Z,94956.28
2023-02-18T07:50:09.906Z,94955.34
2023-02-18T07:52:36.603Z,94948.59
2023-02-18T07:55:03.729Z,94942.13
2023-02-18T07:57:31.268Z,94940.06
2023-02-18T07:59:57.884Z,94942.91
2023-02-18T08:02:25.146Z,94934.09
2023-02-18T08:04:52.214Z,94938.66
2023-02-18T08:07:22.103Z,94917.03
2023-02-18T08:09:50.625Z,94937.06
2023-02-18T08:12:17.772Z,94931.41
2023-02-18T08:14:44.437Z,94917.81
2023-02-18T08:17:11.093Z,94927.00
2023-02-18T08:19:37.722Z,94928.59
2023-02-18T08:22:04.427Z,94925.47
2023-02-18T08:24:31.267Z,94933.38
2023-02-18T08:27:01.202Z,94943.00
2023-02-18T08:29:29.081Z,94942.34
2023-02-18T08:31:57.388Z,94938.56
2023-02-18T08:34:24.149Z,94928.44
2023-02-18T08:36:50.808Z,94921.03
2023-02-18T08:39:17.438Z,94928.75
2023-02-18T08:41:44.092Z,94916.63
2023-02-18T08:44:10.775Z,94920.88
2023-02-18T08:46:37.530Z,94909.97
2023-02-18T08:49:05.177Z,94926.59
2023-02-18T08:51:31.939Z,94928.81
2023-02-18T08:53:59.215Z,94919.97
2023-02-18T08:56:25.925Z,94922.34
2023-02-18T08:58:52.578Z,94917.28
2023-02-18T09:01:19.310Z,94910.03
2023-02-18T09:03:45.983Z,94905.94
2023-02-18T09:06:12.612Z,94900.56
2023-02-18T09:08:39.263Z,94911.66
2023-02-18T09:11:06.039Z,94898.72
2023-02-18T09:13:33.692Z,94901.88
2023-02-18T09:16:11.485Z,94901.22
2023-02-18T09:18:38.232Z,94910.06
2023-02-18T09:21:08.080Z,94908.63
2023-02-18T09:23:35.555Z,94909.13
2023-02-18T09:26:05.918Z,94899.97
2023-02-18T09:28:32.799Z,94898.72
2023-02-18T09:31:05.088Z,94892.84
2023-02-18T09:33:31.829Z,94892.38
2023-02-18T09:35:58.422Z,94895.06
2023-02-18T09:38:25.072Z,94904.22
2023-02-18T09:40:54.556Z,94893.63
2023-02-18T09:43:24.337Z,94897.91
2023-02-18T09:45:53.220Z,94881.34
2023-02-18T09:48:26.717Z,94887.34
2023-02-18T09:50:54.014Z,94884.34
2023-02-18T09:53:23.655Z,94884.16
2023-02-18T09:55:53.868Z,94882.91
2023-02-18T09:58:25.118Z,94881.00
2023-02-18T10:01:01.496Z,94877.84
2023-02-18T10:03:29.940Z,94872.81
2023-02-18T10:06:04.300Z,94880.53
2023-02-18T10:08:35.629Z,94876.44
2023-02-18T10:11:02.348Z,94865.50
2023-02-18T10:13:33.055Z,94873.41
2023-02-18T10:16:00.445Z,94866.31
2023-02-18T10:18:56.473Z,94867.09
2023-02-18T10:21:26.966Z,94853.13
2023-02-18T10:23:58.083Z,94858.34
2023-02-18T10:26:24.838Z,94858.03
2023-02-18T10:28:52.585Z,94855.28
2023-02-18T10:31:27.249Z,94847.47
2023-02-18T10:34:07.580Z,94849.19
2023-02-18T10:36:47.433Z,94848.00
2023-02-18T10:39:34.071Z,94857.81
2023-02-18T10:42:24.104Z,94857.50
2023-02-18T10:45:03.510Z,94853.09
2023-02-18T10:47:39.391Z,94864.19
2023-02-18T10:50:22.696Z,94873.03
2023-02-18T10:52:52.471Z,94855.50
2023-02-18T10:55:19.239Z,94859.00
2023-02-18T10:57:55.025Z,94854.56
2023-02-18T11:00:27.219Z,94853.91
2023-02-18T11:03:15.738Z,94861.75
2023-02-18T11:05:43.535Z,94852.91
2023-02-18T11:08:18.668Z,94846.13
2023-02-18T11:10:46.888Z,94845.31
2023-02-18T11:13:16.687Z,94835.84
2023-02-18T11:16:06.658Z,94822.84
2023-02-18T11:18:40.937Z,94836.50
2023-02-18T11:21:13.298Z,94827.72
2023-02-18T11:23:51.837Z,94822.81
2023-02-18T11:26:27.112Z,94828.84
2023-02-18T11:29:00.451Z,94827.56
2023-02-18T11:31:39.472Z,94820.47
2023-02-18T11:34:06.952Z,94816.38
2023-02-18T11:36:36.136Z,94815.72
2023-02-18T11:39:27.824Z,94809.44
2023-02-18T11:41:58.287Z,94801.56
2023-02-18T11:44:27.542Z,94809.19
2023-02-18T11:46:59.159Z,94799.31
2023-02-18T11:49:26.026Z,94783.13
2023-02-18T11:51:52.903Z,94778.72
2023-02-18T11:54:30.333Z,94772.31
2023-02-18T11:57:26.456Z,94774.59
2023-02-18T11:59:54.222Z,94748.81
2023-02-18T12:02:33.989Z,94762.34
2023-02-18T12:05:30.093Z,94772.66
2023-02-18T12:08:14.732Z,94764.94
2023-02-18T12:10:47.387Z,94763.06
2023-02-18T12:13:26.245Z,94756.16
2023-02-18T12:16:01.039Z,94747.34
2023-02-18T12:18:52.544Z,94767.22
2023-02-18T12:21:33.820Z,94758.38
2023-02-18T12:24:12.907Z,94746.13
2023-02-18T12:26:52.916Z,94762.63
2023-02-18T12:29:56.625Z,94765.78
2023-02-18T12:33:08.338Z,94749.19
2023-02-18T12:35:52.178Z,94755.72
2023-02-18T12:38:50.064Z,94758.78
2023-02-18T12:41:31.897Z,94759.59
2023-02-18T12:44:28.587Z,94761.09
2023-02-18T12:47:13.821Z,94770.59
2023-02-18T12:49:40.470Z,94757.69
2023-02-18T12:52:16.320Z,94756.13
2023-02-18T12:55:01.395Z,94754.09
2023-02-18T12:58:10.935Z,94756.91
2023-02-18T13:00:43.570Z,94753.41
2023-02-18T13:03:10.231Z,94753.09
2023-02-18T13:05:49.025Z,94757.81
2023-02-18T13:08:40.581Z,94753.00
2023-02-18T13:11:36.363Z,94739.88
2023-02-18T13:14:33.576Z,94744.78
2023-02-18T13:17:02.802Z,94739.44
2023-02-18T13:19:36.265Z,94738.47
2023-02-18T13:22:06.034Z,94730.09
2023-02-18T13:24:40.848Z,94743.53
2023-02-18T13:27:17.620Z,94724.91
2023-02-18T13:29:52.613Z,94731.25
2023-02-18T13:32:31.303Z,94739.84
2023-02-18T13:35:22.242Z,94741.28
2023-02-18T13:38:07.608Z,94733.91
2023-02-18T13:40:34.656Z,94741.03
2023-02-18T13:43:35.087Z,94745.44
2023-02-18T13:46:07.942Z,94755.25
2023-02-18T13:48:43.881Z,94746.31
2023-02-18T13:51:12.176Z,94743.94
2023-02-18T13:53:42.934Z,94752.31
2023-02-18T13:56:20.693Z,94751.53
2023-02-18T13:59:00.850Z,94744.13
2023-02-18T14:01:27.421Z,94733.22
2023-02-18T14:03:57.495Z,94729.63
2023-02-18T14:06:32.087Z,94735.47
2023-02-18T14:09:24.955Z,94739.75
2023-02-18T14:11:57.975Z,94733.22
2023-02-18T14:14:33.098Z,94724.84
2023-02-18T14:17:18.099Z,94715.56
2023-02-18T14:20:04.941Z,94717.25
2023-02-18T14:22:31.535Z,94723.44
2023-02-18T14:25:13.238Z,94703.97
2023-02-18T14:27:41.437Z,94698.44
2023-02-18T14:30:19.123Z,94702.75
2023-02-18T14:32:46.330Z,94703.22
2023-02-18T14:35:31.209Z,94702.13
2023-02-18T14:38:30.881Z,94699.91
2023-02-18T14:41:35.563Z,94697.19
2023-02-18T14:44:20.979Z,94692.16
2023-02-18T14:47:12.277Z,94696.47
2023-02-18T14:49:42.037Z,94677.72
2023-02-18T14:52:22.457Z,94681.41
2023-02-18T14:54:49.542Z,94678.75
2023-02-18T14:57:25.740Z,94668.06
2023-02-18T14:59:59.594Z,94669.03
2023-02-18T15:02:30.889Z,94678.34
2023-02-18T15:05:20.642Z,94687.69
2023-02-18T15:08:03.314Z,94685.88
2023-02-18T15:10:40.627Z,94688.34
2023-02-18T15:13:29.345Z,94685.56
2023-02-18T15:16:02.672Z,94698.69
2023-02-18T15:18:44.632Z,94688.19
2023-02-18T15:21:35.237Z,94680.59
2023-02-18T15:24:09.992Z,94686.69
2023-02-18T15:26:42.405Z,94683.81
2023-02-18T15:29:24.291Z,94688.34
2023-02-18T15:31:51.317Z,94698.94
2023-02-18T15:34:29.284Z,94694.34
2023-02-18T15:36:56.936Z,94694.41
2023-02-18T15:39:24.210Z,94691.16
2023-02-18T15:41:56.886Z,94700.66
2023-02-18T15:44:27.267Z,94692.31
2023-02-18T15:46:54.472Z,94700.88
2023-02-18T15:49:24.360Z,94699.16
2023-02-18T15:51:57.390Z,94701.03
2023-02-18T15:54:24.471Z,94686.41
2023-02-18T15:56:54.384Z,94696.81
2023-02-18T15:59:26.036Z,94688.78
2023-02-18T16:01:56.016Z,94691.00
2023-02-18T16:04:25.164Z,94696.09
2023-02-18T16:06:56.538Z,94696.41
2023-02-18T16:09:30.348Z,94687.78
2023-02-18T16:11:59.889Z,94693.78
2023-02-18T16:14:26.520Z,94692.22
2023-02-18T16:17:11.623Z,94697.13
2023-02-18T16:20:05.832Z,94690.66
2023-02-18T16:22:35.530Z,94692.41
2023-02-18T16:25:14.548Z,94691.47
2023-02-18T16:28:16.303Z,94691.00
2023-02-18T16:30:46.113Z,94682.81
2023-02-18T16:33:13.077Z,94682.34
2023-02-18T16:35:49.532Z,94669.41
2023-02-18T16:38:19.977Z,94683.63
2023-02-18T16:40:47.321Z,94698.00
2023-02-18T16:43:27.482Z,94686.00
2023-02-18T16:45:57.370Z,94684.75
2023-02-18T16:48:29.476Z,94700.53
2023-02-18T16:50:56.839Z,94695.47
2023-02-18T16:53:23.798Z,94699.28
2023-02-18T16:55:51.134Z,94700.22
2023-02-18T16:58:18.128Z,94690.28
2023-02-18T17:00:46.366Z,94686.81
2023-02-18T17:03:13.669Z,94689.34
2023-02-18T17:05:41.173Z,94692.34
2023-02-18T17:08:25.579Z,94692.03
2023-02-18T17:10:57.522Z,94699.75
2023-02-18T17:13:30.448Z,94698.06
2023-02-18T17:15:58.716Z,94703.28
2023-02-18T17:18:26.056Z,94707.53
2023-02-18T17:20:53.817Z,94702.50
2023-02-18T17:23:23.108Z,94714.16
2023-02-18T17:25:51.116Z,94709.28
2023-02-18T17:28:19.332Z,94706.28
2023-02-18T17:30:49.096Z,94714.00
2023-02-18T17:33:18.154Z,94721.75
2023-02-18T17:35:45.599Z,94717.16
2023-02-18T17:38:18.058Z,94728.53
2023-02-18T17:40:45.694Z,94724.28
2023-02-18T17:43:14.876Z,94726.97
2023-02-18T17:45:55.594Z,94729.63
2023-02-18T17:48:22.370Z,94735.16
2023-02-18T17:50:49.186Z,94731.22
2023-02-18T17:53:16.351Z,94737.84
2023-02-18T17:55:44.333Z,94740.06
2023-02-18T17:58:11.580Z,94736.91
2023-02-18T18:00:48.781Z,94741.00
2023-02-18T18:03:16.077Z,94743.69
2023-02-18T18:05:45.784Z,94745.00
2023-02-18T18:08:13.875Z,94738.22
2023-02-18T18:10:49.406Z,94745.91
2023-02-18T18:13:23.577Z,94754.91
2023-02-18T18:15:51.296Z,94755.53
2023-02-18T18:18:18.862Z,94747.47
2023-02-18T18:20:50.559Z,94739.13
2023-02-18T18:23:19.232Z,94742.00
2023-02-18T18:25:50.555Z,94743.09
2023-02-18T18:28:17.991Z,94747.34
2023-02-18T18:30:50.725Z,94752.56
2023-02-18T18:33:17.378Z,94753.84
2023-02-18T18:35:49.876Z,94749.56
2023-02-18T18:38:20.777Z,94739.31
2023-02-18T18:40:48.751Z,94754.00
2023-02-18T18:43:21.414Z,94754.00
2023-02-18T18:45:50.011Z,94749.56
2023-02-18T18:48:17.611Z,94742.78
2023-02-18T18:50:44.478Z,94743.09
2023-02-18T18:53:19.453Z,94747.97
2023-02-18T18:55:46.562Z,94754.09
2023-02-18T18:58:13.259Z,94754.94
2023-02-18T19:00:43.753Z,94749.09
2023-02-18T19:03:12.133Z,94752.09
2023-02-18T19:05:41.971Z,94756.34
2023-02-18T19:08:10.657Z,94751.94
2023-02-18T19:10:39.992Z,94751.44
2023-02-18T19:13:19.918Z,94747.19
2023-02-18T19:15:47.724Z,94753.97
2023-02-18T19:18:20.122Z,94744.81
2023-02-18T19:20:48.675Z,94758.25
2023-02-18T19:23:15.412Z,94753.66
2023-02-18T19:25:42.772Z,94754.09
2023-02-18T19:28:13.799Z,94760.91
2023-02-18T19:30:44.121Z,94757.59
2023-02-18T19:33:13.697Z,94768.13
2023-02-18T19:35:41.616Z,94764.19
2023-02-18T19:38:10.562Z,94766.22
2023-02-18T19:40:38.397Z,94754.41
2023-02-18T19:43:05.578Z,94754.69
2023-02-18T19:45:33.153Z,94758.47
2023-02-18T19:48:01.036Z,94764.00
2023-02-18T19:50:32.508Z,94764.31
2023-02-18T19:53:00.042Z,94766.97
2023-02-18T19:55:26.719Z,94762.41
2023-02-18T19:57:53.426Z,94763.50
2023-02-18T20:00:22.583Z,94772.00
2023-02-18T20:02:50.466Z,94766.63
2023-02-18T20:05:17.696Z,94768.03
2023-02-18T20:07:46.751Z,94775.75
2023-02-18T20:10:18.080Z,94776.38
2023-02-18T20:12:44.772Z,94779.50
2023-02-18T20:15:11.714Z,94783.44
2023-02-18T20:17:39.491Z,94776.44
2023-02-18T20:20:06.832Z,94770.59
2023-02-18T20:22:33.768Z,94776.81
2023-02-18T20:25:00.381Z,94777.91
2023-02-18T20:27:27.059Z,94772.22
2023-02-18T20:29:53.726Z,94767.31
2023-02-18T20:32:20.481Z,94777.91
2023-02-18T20:34:47.288Z,94780.59
2023-02-18T20:37:15.172Z,94773.34
2023-02-18T20:39:41.966Z,94772.22
2023-02-18T20:42:16.340Z,94777.25
2023-02-18T20:44:44.850Z,94776.31
2023-02-18T20:47:13.688Z,94771.13
2023-02-18T20:49:41.036Z,94787.19
2023-02-18T20:52:09.483Z,94778.03
2023-02-18T20:54:36.143Z,94780.72
2023-02-18T20:57:02.866Z,94767.97
2023-02-18T20:59:29.890Z,94777.41
2023-02-18T21:01:56.699Z,94773.94
2023-02-18T21:04:23.428Z,94773.31
2023-02-18T21:06:50.626Z,94764.94
2023-02-18T21:09:17.722Z,94774.91
2023-02-18T21:11:44.868Z,94775.53
2023-02-18T21:14:11.606Z,94775.22
2023-02-18T21:16:39.061Z,94764.00
2023-02-18T21:19:07.722Z,94769.41
2023-02-18T21:21:34.954Z,94771.47
2023-02-18T21:24:01.869Z,94779.50
2023-02-18T21:26:29.000Z,94770.97
2023-02-18T21:28:58.957Z,94785.31
2023-02-18T21:31:32.369Z,94779.00
2023-02-18T21:33:59.358Z,94774.25
2023-02-18T21:36:27.216Z,94774.09
2023-02-18T21:38:59.492Z,94774.53
2023-02-18T21:41:26.388Z,94774.53
2023-02-18T21:43:53.415Z,94780.50
2023-02-18T21:46:25.836Z,94771.25
2023-02-18T21:49:04.918Z,94776.72
2023-02-18T21:51:56.508Z,94778.31
2023-02-18T21:54:28.852Z,94773.38
2023-02-18T21:56:56.059Z,94774.47
2023-02-18T21:59:24.267Z,94777.94
2023-02-18T22:01:50.995Z,94767.25
2023-02-18T22:04:17.824Z,94768.03
2023-02-18T22:06:44.743Z,94771.63
2023-02-18T22:09:12.045Z,94780.13
2023-02-18T22:11:43.054Z,94771.00
2023-02-18T22:14:11.555Z,94768.81
2023-02-18T22:16:38.675Z,94765.22
2023-02-18T22:19:05.808Z,94761.94
2023-02-18T22:21:33.095Z,94767.59
2023-02-18T22:23:59.808Z,94765.41
2023-02-18T22:26:26.594Z,94765.91
2023-02-18T22:28:58.867Z,94764.63
2023-02-18T22:31:26.576Z,94764.44
2023-02-18T22:33:54.651Z,94761.28
2023-02-18T22:36:23.147Z,94764.25
2023-02-18T22:38:50.359Z,94760.31
2023-02-18T22:41:19.657Z,94756.22
2023-02-18T22:43:46.950Z,94758.88
2023-02-18T22:46:16.592Z,94750.97
2023-02-18T22:48:43.963Z,94751.16
2023-02-18T22:51:14.147Z,94749.56
2023-02-18T22:53:41.832Z,94746.91
2023-02-18T22:56:12.245Z,94733.84
2023-02-18T22:58:39.916Z,94741.97
2023-02-18T23:01:07.267Z,94732.66
2023-02-18T23:03:34.733Z,94733.44
2023-02-18T23:06:03.808Z,94732.66
2023-02-18T23:08:31.778Z,94726.50
2023-02-18T23:11:07.478Z,94720.69
2023-02-18T23:13:34.657Z,94724.94
2023-02-18T23:16:03.792Z,94720.28
2023-02-18T23:18:31.815Z,94723.44
2023-02-18T23:21:18.274Z,94718.69
2023-02-18T23:23:46.389Z,94722.66
2023-02-18T23:26:13.639Z,94713.94
2023-02-18T23:28:49.307Z,94711.06
2023-02-18T23:31:25.020Z,94707.50
2023-02-18T23:33:57.670Z,94706.69
2023-02-18T23:36:27.047Z,94699.91
2023-02-18T23:38:59.040Z,94708.69
2023-02-18T23:41:26.959Z,94707.31
2023-02-18T23:43:54.064Z,94692.97
2023-02-18T23:46:23.198Z,94694.06
2023-02-18T23:48:49.929Z,94692.84
2023-02-18T23:51:19.528Z,94683.25
2023-02-18T23:53:46.379Z,94681.66
2023-02-18T23:56:17.536Z,94679.47
2023-02-18T23:58:53.338Z,94677.28
